createdAt,value
2022-11-21T00:00:27.953Z,1.08
2022-11-21T00:05:31.644Z,0.98
2022-11-21T00:10:33.655Z,0.93
2022-11-21T00:15:35.961Z,0.83
2022-11-21T00:20:38.422Z,0.77
2022-11-21T00:25:40.267Z,0.75
2022-11-21T00:30:42.027Z,0.71
2022-11-21T00:35:43.858Z,0.66
2022-11-21T00:40:45.823Z,0.65
2022-11-21T00:45:47.697Z,0.64
2022-11-21T00:50:50.118Z,0.61
2022-11-21T00:55:51.873Z,0.57
2022-11-21T01:01:03.316Z,0.51
2022-11-21T01:06:11.104Z,0.47
2022-11-21T01:11:15.825Z,0.44
2022-11-21T01:16:20.584Z,0.39
2022-11-21T01:21:27.848Z,0.35
2022-11-21T01:26:31.831Z,0.30
2022-11-21T01:31:33.964Z,0.26
2022-11-21T01:36:35.791Z,0.22
2022-11-21T01:41:40.472Z,0.17
2022-11-21T01:46:42.322Z,0.13
2022-11-21T01:51:54.185Z,0.07
2022-11-21T01:57:08.456Z,0.00
2022-11-21T02:02:13.630Z,-0.01
2022-11-21T02:07:19.718Z,-0.01
2022-11-21T02:12:44.850Z,-0.03
2022-11-21T02:17:46.971Z,-0.07
2022-11-21T02:23:00.412Z,-0.09
2022-11-21T02:28:05.880Z,-0.11
2022-11-21T02:33:08.232Z,-0.12
2022-11-21T02:38:38.441Z,-0.13
2022-11-21T02:43:46.755Z,-0.15
2022-11-21T02:48:48.659Z,-0.17
2022-11-21T02:53:50.734Z,-0.13
2022-11-21T02:58:52.622Z,-0.05
2022-11-21T03:03:54.435Z,-0.01
2022-11-21T03:08:56.293Z,0.01
2022-11-21T03:13:58.194Z,0.01
2022-11-21T03:19:00.028Z,-0.00
2022-11-21T03:24:01.857Z,-0.00
2022-11-21T03:29:03.848Z,-0.03
2022-11-21T03:34:05.748Z,-0.05
2022-11-21T03:39:08.548Z,-0.08
2022-11-21T03:44:12.437Z,-0.11
2022-11-21T03:49:16.904Z,-0.14
2022-11-21T03:54:18.775Z,-0.17
2022-11-21T03:59:20.602Z,-0.18
2022-11-21T04:04:22.469Z,-0.18
2022-11-21T04:09:24.286Z,-0.17
2022-11-21T04:14:26.437Z,-0.11
2022-11-21T04:19:28.925Z,-0.02
2022-11-21T04:24:30.971Z,0.13
2022-11-21T04:29:33.043Z,0.32
2022-11-21T04:34:34.933Z,0.50
2022-11-21T04:39:36.798Z,0.60
2022-11-21T04:44:38.623Z,0.62
2022-11-21T04:49:40.526Z,0.61
2022-11-21T04:54:42.473Z,0.60
2022-11-21T04:59:44.313Z,0.59
2022-11-21T05:04:46.166Z,0.56
2022-11-21T05:09:48.010Z,0.55
2022-11-21T05:14:49.962Z,0.52
2022-11-21T05:19:51.819Z,0.48
2022-11-21T05:24:53.797Z,0.42
2022-11-21T05:29:55.694Z,0.44
2022-11-21T05:34:57.474Z,0.50
2022-11-21T05:39:59.423Z,0.54
2022-11-21T05:45:01.273Z,0.56
2022-11-21T05:50:03.401Z,0.58
2022-11-21T05:55:05.618Z,0.55
2022-11-21T06:00:08.470Z,0.58
2022-11-21T06:05:10.285Z,0.64
2022-11-21T06:10:12.122Z,0.75
2022-11-21T06:15:13.967Z,0.82
2022-11-21T06:20:15.839Z,0.89
2022-11-21T06:25:17.801Z,0.97
2022-11-21T06:30:22.312Z,1.10
2022-11-21T06:35:24.303Z,1.25
2022-11-21T06:40:26.198Z,1.31
2022-11-21T06:45:28.128Z,1.42
2022-11-21T06:50:31.289Z,1.62
2022-11-21T06:55:33.100Z,1.82
2022-11-21T07:00:35.018Z,2.02
2022-11-21T07:05:36.833Z,2.21
2022-11-21T07:10:38.727Z,2.41
2022-11-21T07:15:40.591Z,2.65
2022-11-21T07:20:42.503Z,2.86
2022-11-21T07:25:44.417Z,3.08
2022-11-21T07:30:46.298Z,3.33
2022-11-21T07:35:48.103Z,3.55
2022-11-21T07:40:49.955Z,3.74
2022-11-21T07:45:51.837Z,3.83
2022-11-21T07:50:53.712Z,3.84
2022-11-21T07:55:58.749Z,3.87
2022-11-21T08:01:05.528Z,3.95
2022-11-21T08:06:07.459Z,4.08
2022-11-21T08:11:09.358Z,4.16
2022-11-21T08:16:11.286Z,4.29
2022-11-21T08:21:18.491Z,4.39
2022-11-21T08:26:21.691Z,4.49
2022-11-21T08:31:23.626Z,4.57
2022-11-21T08:36:25.461Z,4.66
2022-11-21T08:41:46.136Z,4.74
2022-11-21T08:46:47.933Z,4.89
2022-11-21T08:51:50.160Z,4.95
2022-11-21T08:56:52.204Z,5.00
2022-11-21T09:01:54.114Z,5.06
2022-11-21T09:06:55.972Z,5.08
2022-11-21T09:11:57.803Z,5.15
2022-11-21T09:17:18.591Z,5.19
2022-11-21T09:22:20.449Z,5.20
2022-11-21T09:27:22.283Z,5.27
2022-11-21T09:32:24.450Z,5.28
2022-11-21T09:37:26.361Z,5.34
2022-11-21T09:42:44.236Z,5.56
2022-11-21T09:47:49.433Z,5.73
2022-11-21T09:52:57.855Z,5.92
2022-11-21T09:58:02.917Z,6.20
2022-11-21T10:03:04.845Z,6.54
2022-11-21T10:08:22.388Z,6.81
2022-11-21T10:13:26.860Z,7.05
2022-11-21T10:18:51.575Z,7.44
2022-11-21T10:24:18.724Z,7.80
2022-11-21T10:29:34.826Z,7.96
2022-11-21T10:34:39.063Z,7.97
2022-11-21T10:39:48.431Z,7.95
2022-11-21T10:45:09.571Z,7.84
2022-11-21T10:50:39.392Z,7.77
2022-11-21T10:55:59.059Z,7.83
2022-11-21T11:01:00.955Z,7.76
2022-11-21T11:06:02.938Z,7.77
2022-11-21T11:11:08.088Z,7.81
2022-11-21T11:16:09.918Z,7.74
2022-11-21T11:21:16.233Z,7.74
2022-11-21T11:26:25.997Z,7.75
2022-11-21T11:31:40.427Z,7.75
2022-11-21T11:36:54.701Z,7.77
2022-11-21T11:42:36.880Z,7.81
2022-11-21T11:47:54.437Z,7.99
2022-11-21T11:53:06.007Z,8.29
2022-11-21T11:58:22.075Z,8.52
2022-11-21T12:03:58.106Z,8.70
2022-11-21T12:09:13.812Z,8.78
2022-11-21T12:15:00.648Z,8.64
2022-11-21T12:20:12.883Z,8.48
2022-11-21T12:25:16.967Z,8.43
2022-11-21T12:30:37.180Z,8.35
2022-11-21T12:35:42.064Z,8.25
2022-11-21T12:41:26.927Z,8.17
2022-11-21T12:46:45.517Z,8.12
2022-11-21T12:52:38.619Z,8.05
2022-11-21T12:58:05.363Z,7.98
2022-11-21T13:03:07.151Z,7.90
2022-11-21T13:08:22.854Z,7.82
2022-11-21T13:13:34.514Z,7.82
2022-11-21T13:18:49.069Z,7.86
2022-11-21T13:23:50.911Z,7.97
2022-11-21T13:29:12.626Z,8.04
2022-11-21T13:34:36.571Z,8.04
2022-11-21T13:39:38.863Z,7.98
2022-11-21T13:44:41.538Z,7.88
2022-11-21T13:49:43.360Z,7.73
2022-11-21T13:54:55.217Z,7.60
2022-11-21T14:00:24.636Z,7.48
2022-11-21T14:06:19.728Z,7.38
2022-11-21T14:11:34.701Z,7.25
2022-11-21T14:16:48.516Z,7.16
2022-11-21T14:21:50.512Z,7.11
2022-11-21T14:26:54.196Z,7.06
2022-11-21T14:31:56.098Z,7.01
2022-11-21T14:37:00.094Z,6.94
2022-11-21T14:42:12.105Z,6.89
2022-11-21T14:47:25.781Z,6.88
2022-11-21T14:52:31.760Z,6.94
2022-11-21T14:57:38.957Z,7.01
2022-11-21T15:02:40.909Z,6.99
2022-11-21T15:07:48.215Z,6.93
2022-11-21T15:13:16.260Z,6.80
2022-11-21T15:18:29.535Z,6.74
2022-11-21T15:23:38.450Z,6.73
2022-11-21T15:28:55.207Z,6.70
2022-11-21T15:34:34.832Z,6.66
2022-11-21T15:39:27.244Z,6.64
2022-11-21T15:44:29.414Z,6.63
2022-11-21T15:49:33.207Z,6.60
2022-11-21T15:54:35.594Z,6.56
2022-11-21T15:59:37.595Z,6.53
2022-11-21T16:04:39.509Z,6.52
2022-11-21T16:09:43.305Z,6.49
2022-11-21T16:14:45.252Z,6.55
2022-11-21T16:19:47.163Z,6.60
2022-11-21T16:24:49.548Z,6.59
2022-11-21T16:29:51.512Z,6.60
2022-11-21T16:34:54.775Z,6.61
2022-11-21T16:39:56.659Z,6.60
2022-11-21T16:44:58.651Z,6.60
2022-11-21T16:50:00.541Z,6.63
2022-11-21T16:55:02.584Z,6.61
2022-11-21T17:00:04.985Z,6.53
2022-11-21T17:05:07.342Z,6.41
2022-11-21T17:10:09.538Z,6.26
2022-11-21T17:15:14.376Z,6.19
2022-11-21T17:20:16.246Z,6.15
2022-11-21T17:25:18.102Z,6.06
2022-11-21T17:30:19.944Z,6.01
2022-11-21T17:35:21.917Z,5.97
2022-11-21T17:40:23.760Z,5.99
2022-11-21T17:45:25.694Z,6.01
2022-11-21T17:50:27.708Z,6.07
2022-11-21T17:55:29.613Z,6.16
2022-11-21T18:00:31.378Z,6.25
2022-11-21T18:05:33.569Z,6.32
2022-11-21T18:10:43.363Z,6.40
2022-11-21T18:15:46.039Z,6.40
2022-11-21T18:20:47.928Z,6.39
2022-11-21T18:25:49.810Z,6.36
2022-11-21T18:30:51.712Z,6.31
2022-11-21T18:35:53.532Z,6.26
2022-11-21T18:40:55.396Z,6.23
2022-11-21T18:46:05.968Z,6.15
2022-11-21T18:51:16.417Z,6.05
2022-11-21T18:56:18.768Z,5.99
2022-11-21T19:01:26.098Z,5.92
2022-11-21T19:06:28.926Z,5.86
2022-11-21T19:11:30.937Z,5.76
2022-11-21T19:16:34.630Z,5.71
2022-11-21T19:21:38.281Z,5.67
2022-11-21T19:26:40.935Z,5.58
2022-11-21T19:31:45.590Z,5.48
2022-11-21T19:36:48.044Z,5.43
2022-11-21T19:41:50.195Z,5.37
2022-11-21T19:46:52.066Z,5.32
2022-11-21T19:51:53.932Z,5.32
2022-11-21T19:56:55.877Z,5.36
2022-11-21T20:01:57.937Z,5.40
2022-11-21T20:07:04.823Z,5.32
2022-11-21T20:12:09.387Z,5.23
2022-11-21T20:17:11.155Z,5.15
2022-11-21T20:22:13.048Z,5.07
2022-11-21T20:27:15.008Z,5.05
2022-11-21T20:32:16.740Z,5.05
2022-11-21T20:37:18.572Z,5.01
2022-11-21T20:42:20.411Z,4.91
2022-11-21T20:47:22.192Z,4.72
2022-11-21T20:57:45.832Z,4.22
2022-11-21T21:02:47.730Z,4.06
2022-11-21T21:07:49.587Z,3.89
2022-11-21T21:12:51.553Z,3.75
2022-11-21T21:17:53.425Z,3.62
2022-11-21T21:22:55.759Z,3.48
2022-11-21T21:27:57.639Z,3.36
2022-11-21T21:32:59.716Z,3.26
2022-11-21T21:38:04.867Z,3.16
2022-11-21T21:43:10.594Z,3.04
2022-11-21T21:48:12.404Z,2.93
2022-11-21T21:53:14.227Z,2.83
2022-11-21T21:58:16.019Z,2.74
2022-11-21T22:03:17.846Z,2.65
2022-11-21T22:08:19.825Z,2.56
2022-11-21T22:13:26.025Z,2.45
2022-11-21T22:18:28.871Z,2.32
2022-11-21T22:23:33.705Z,2.24
2022-11-21T22:28:35.691Z,2.13
2022-11-21T22:33:38.749Z,2.00
2022-11-21T22:38:41.107Z,1.92
2022-11-21T22:43:44.110Z,1.84
2022-11-21T22:48:51.424Z,1.81
2022-11-21T22:53:53.319Z,1.78
2022-11-21T22:58:56.100Z,1.77
2022-11-21T23:03:57.964Z,1.76
2022-11-21T23:08:59.852Z,1.74
2022-11-21T23:14:01.945Z,1.72
2022-11-21T23:19:03.858Z,1.74
2022-11-21T23:24:06.076Z,1.81
2022-11-21T23:29:09.106Z,1.95
2022-11-21T23:34:11.340Z,2.10
2022-11-21T23:39:13.147Z,2.23
2022-11-21T23:44:14.958Z,2.35
2022-11-21T23:49:17.090Z,2.46
2022-11-21T23:54:18.906Z,2.54
2022-11-21T23:59:20.785Z,2.59
